sensor_id;sensor_type;location;lat;lon;timestamp;temperature;humidity
68011;DHT22;54794;48.348;7.878;2024-01-16T00:02:43;3.10;64.80
68011;DHT22;54794;48.348;7.878;2024-01-16T00:05:52;3.10;64.70
68011;DHT22;54794;48.348;7.878;2024-01-16T00:09:03;3.10;64.70
68011;DHT22;54794;48.348;7.878;2024-01-16T00:11:53;3.00;64.70
68011;DHT22;54794;48.348;7.878;2024-01-16T00:14:50;3.00;64.70
68011;DHT22;54794;48.348;7.878;2024-01-16T00:18:06;3.10;64.80
68011;DHT22;54794;48.348;7.878;2024-01-16T00:20:58;3.00;64.70
68011;DHT22;54794;48.348;7.878;2024-01-16T00:23:45;3.00;64.70
68011;DHT22;54794;48.348;7.878;2024-01-16T00:26:46;3.30;64.80
68011;DHT22;54794;48.348;7.878;2024-01-16T00:29:23;3.00;64.70
68011;DHT22;54794;48.348;7.878;2024-01-16T00:32:30;3.20;64.90
68011;DHT22;54794;48.348;7.878;2024-01-16T00:35:24;3.00;64.80
68011;DHT22;54794;48.348;7.878;2024-01-16T00:38:05;3.30;65.00
68011;DHT22;54794;48.348;7.878;2024-01-16T00:43:46;2.70;64.60
68011;DHT22;54794;48.348;7.878;2024-01-16T00:46:43;3.10;64.90
68011;DHT22;54794;48.348;7.878;2024-01-16T00:49:47;2.90;64.70
68011;DHT22;54794;48.348;7.878;2024-01-16T00:52:36;2.80;64.60
68011;DHT22;54794;48.348;7.878;2024-01-16T00:55:33;3.70;65.10
68011;DHT22;54794;48.348;7.878;2024-01-16T00:58:22;2.60;64.50
68011;DHT22;54794;48.348;7.878;2024-01-16T01:01:19;3.10;64.80
68011;DHT22;54794;48.348;7.878;2024-01-16T01:04:15;3.20;64.90
68011;DHT22;54794;48.348;7.878;2024-01-16T01:07:08;3.20;64.90
68011;DHT22;54794;48.348;7.878;2024-01-16T01:10:07;2.80;64.70
68011;DHT22;54794;48.348;7.878;2024-01-16T01:13:22;2.70;64.70
68011;DHT22;54794;48.348;7.878;2024-01-16T01:16:28;2.70;64.70
68011;DHT22;54794;48.348;7.878;2024-01-16T01:19:15;2.60;64.70
68011;DHT22;54794;48.348;7.878;2024-01-16T01:21:53;2.60;64.60
68011;DHT22;54794;48.348;7.878;2024-01-16T01:24:52;2.60;64.70
68011;DHT22;54794;48.348;7.878;2024-01-16T01:27:29;3.00;64.90
68011;DHT22;54794;48.348;7.878;2024-01-16T01:30:20;2.60;64.70
68011;DHT22;54794;48.348;7.878;2024-01-16T01:33:12;2.70;64.80
68011;DHT22;54794;48.348;7.878;2024-01-16T01:36:10;2.50;64.60
68011;DHT22;54794;48.348;7.878;2024-01-16T01:38:48;2.60;64.70
68011;DHT22;54794;48.348;7.878;2024-01-16T01:41:25;2.60;64.80
68011;DHT22;54794;48.348;7.878;2024-01-16T01:44:40;2.50;64.80
68011;DHT22;54794;48.348;7.878;2024-01-16T01:47:13;2.60;64.80
68011;DHT22;54794;48.348;7.878;2024-01-16T01:50:07;2.20;64.60
68011;DHT22;54794;48.348;7.878;2024-01-16T01:52:49;2.50;64.90
68011;DHT22;54794;48.348;7.878;2024-01-16T01:55:24;2.30;64.80
68011;DHT22;54794;48.348;7.878;2024-01-16T01:58:21;2.50;65.00
68011;DHT22;54794;48.348;7.878;2024-01-16T02:01:01;2.50;65.10
68011;DHT22;54794;48.348;7.878;2024-01-16T02:03:39;2.50;65.00
68011;DHT22;54794;48.348;7.878;2024-01-16T02:06:31;2.90;65.20
68011;DHT22;54794;48.348;7.878;2024-01-16T02:09:08;2.40;64.90
68011;DHT22;54794;48.348;7.878;2024-01-16T02:12:01;3.10;65.30
68011;DHT22;54794;48.348;7.878;2024-01-16T02:14:42;2.40;64.90
68011;DHT22;54794;48.348;7.878;2024-01-16T02:17:22;2.30;64.90
68011;DHT22;54794;48.348;7.878;2024-01-16T02:20:07;2.40;64.90
68011;DHT22;54794;48.348;7.878;2024-01-16T02:22:52;2.30;64.80
68011;DHT22;54794;48.348;7.878;2024-01-16T02:25:32;2.30;64.90
68011;DHT22;54794;48.348;7.878;2024-01-16T02:28:13;2.00;64.70
68011;DHT22;54794;48.348;7.878;2024-01-16T02:30:50;2.50;64.90
68011;DHT22;54794;48.348;7.878;2024-01-16T02:33:31;1.80;64.60
68011;DHT22;54794;48.348;7.878;2024-01-16T02:36:07;2.20;64.80
68011;DHT22;54794;48.348;7.878;2024-01-16T02:38:44;2.20;64.80
68011;DHT22;54794;48.348;7.878;2024-01-16T02:41:18;2.00;64.70
68011;DHT22;54794;48.348;7.878;2024-01-16T02:43:56;2.10;64.80
68011;DHT22;54794;48.348;7.878;2024-01-16T02:46:32;2.10;64.80
68011;DHT22;54794;48.348;7.878;2024-01-16T02:49:19;2.20;64.90
68011;DHT22;54794;48.348;7.878;2024-01-16T02:51:51;1.70;64.60
68011;DHT22;54794;48.348;7.878;2024-01-16T02:54:25;2.50;65.00
68011;DHT22;54794;48.348;7.878;2024-01-16T02:57:11;2.00;64.70
68011;DHT22;54794;48.348;7.878;2024-01-16T03:00:08;1.80;64.70
68011;DHT22;54794;48.348;7.878;2024-01-16T03:05:51;1.80;64.60
68011;DHT22;54794;48.348;7.878;2024-01-16T03:08:32;2.10;64.80
68011;DHT22;54794;48.348;7.878;2024-01-16T03:11:06;1.80;64.60
68011;DHT22;54794;48.348;7.878;2024-01-16T03:13:45;2.50;65.00
68011;DHT22;54794;48.348;7.878;2024-01-16T03:16:46;1.60;64.50
68011;DHT22;54794;48.348;7.878;2024-01-16T03:19:27;1.60;64.60
68011;DHT22;54794;48.348;7.878;2024-01-16T03:22:02;1.70;64.60
68011;DHT22;54794;48.348;7.878;2024-01-16T03:27:34;1.80;64.70
68011;DHT22;54794;48.348;7.878;2024-01-16T03:30:09;1.60;64.60
68011;DHT22;54794;48.348;7.878;2024-01-16T03:33:07;1.50;64.60
68011;DHT22;54794;48.348;7.878;2024-01-16T03:35:43;1.60;64.60
68011;DHT22;54794;48.348;7.878;2024-01-16T03:38:15;1.50;64.60
68011;DHT22;54794;48.348;7.878;2024-01-16T03:40:53;1.50;64.70
68011;DHT22;54794;48.348;7.878;2024-01-16T03:43:34;1.40;64.60
68011;DHT22;54794;48.348;7.878;2024-01-16T03:46:22;2.00;65.00
68011;DHT22;54794;48.348;7.878;2024-01-16T03:48:58;2.10;65.00
68011;DHT22;54794;48.348;7.878;2024-01-16T03:51:31;1.40;64.60
68011;DHT22;54794;48.348;7.878;2024-01-16T03:54:02;1.40;64.60
68011;DHT22;54794;48.348;7.878;2024-01-16T03:56:45;2.00;64.80
68011;DHT22;54794;48.348;7.878;2024-01-16T03:59:45;1.10;64.40
68011;DHT22;54794;48.348;7.878;2024-01-16T04:02:31;1.20;64.40
68011;DHT22;54794;48.348;7.878;2024-01-16T04:05:10;1.20;64.50
68011;DHT22;54794;48.348;7.878;2024-01-16T04:07:58;1.20;64.50
68011;DHT22;54794;48.348;7.878;2024-01-16T04:10:40;1.50;64.70
68011;DHT22;54794;48.348;7.878;2024-01-16T04:13:14;1.60;64.80
68011;DHT22;54794;48.348;7.878;2024-01-16T04:15:44;1.10;64.60
68011;DHT22;54794;48.348;7.878;2024-01-16T04:18:13;1.10;64.60
68011;DHT22;54794;48.348;7.878;2024-01-16T04:21:01;1.00;64.40
68011;DHT22;54794;48.348;7.878;2024-01-16T04:23:36;1.40;64.80
68011;DHT22;54794;48.348;7.878;2024-01-16T04:26:16;0.70;64.40
68011;DHT22;54794;48.348;7.878;2024-01-16T04:28:53;1.30;64.70
68011;DHT22;54794;48.348;7.878;2024-01-16T04:31:27;0.90;64.60
68011;DHT22;54794;48.348;7.878;2024-01-16T04:34:05;1.00;64.60
68011;DHT22;54794;48.348;7.878;2024-01-16T04:36:44;0.90;64.40
68011;DHT22;54794;48.348;7.878;2024-01-16T04:39:31;1.40;64.80
68011;DHT22;54794;48.348;7.878;2024-01-16T04:42:10;0.90;64.40
68011;DHT22;54794;48.348;7.878;2024-01-16T04:44:39;0.60;64.20
68011;DHT22;54794;48.348;7.878;2024-01-16T04:47:12;0.70;64.20
68011;DHT22;54794;48.348;7.878;2024-01-16T04:49:50;0.80;64.30
68011;DHT22;54794;48.348;7.878;2024-01-16T04:52:26;1.20;64.60
68011;DHT22;54794;48.348;7.878;2024-01-16T04:55:06;0.70;64.40
68011;DHT22;54794;48.348;7.878;2024-01-16T04:57:36;0.90;64.40
68011;DHT22;54794;48.348;7.878;2024-01-16T05:00:07;0.50;64.40
68011;DHT22;54794;48.348;7.878;2024-01-16T05:02:36;0.60;64.40
68011;DHT22;54794;48.348;7.878;2024-01-16T05:05:20;0.50;64.30
68011;DHT22;54794;48.348;7.878;2024-01-16T05:07:55;0.60;64.30
68011;DHT22;54794;48.348;7.878;2024-01-16T05:10:23;0.50;64.30
68011;DHT22;54794;48.348;7.878;2024-01-16T05:13:07;0.70;64.40
68011;DHT22;54794;48.348;7.878;2024-01-16T05:15:48;0.40;64.40
68011;DHT22;54794;48.348;7.878;2024-01-16T05:18:23;0.20;64.10
68011;DHT22;54794;48.348;7.878;2024-01-16T05:20:58;0.30;64.20
68011;DHT22;54794;48.348;7.878;2024-01-16T05:23:35;0.40;64.30
68011;DHT22;54794;48.348;7.878;2024-01-16T05:26:06;0.30;64.20
68011;DHT22;54794;48.348;7.878;2024-01-16T05:28:41;0.30;64.30
68011;DHT22;54794;48.348;7.878;2024-01-16T05:31:08;0.30;64.30
68011;DHT22;54794;48.348;7.878;2024-01-16T05:33:41;0.20;64.40
68011;DHT22;54794;48.348;7.878;2024-01-16T05:36:11;0.20;64.30
68011;DHT22;54794;48.348;7.878;2024-01-16T05:38:43;0.20;64.30
68011;DHT22;54794;48.348;7.878;2024-01-16T05:41:16;0.20;64.30
68011;DHT22;54794;48.348;7.878;2024-01-16T05:43:46;0.10;64.50
68011;DHT22;54794;48.348;7.878;2024-01-16T05:46:13;0.10;64.50
68011;DHT22;54794;48.348;7.878;2024-01-16T05:48:42;0.30;64.60
68011;DHT22;54794;48.348;7.878;2024-01-16T05:51:12;0.20;64.60
68011;DHT22;54794;48.348;7.878;2024-01-16T05:53:45;0.20;64.60
68011;DHT22;54794;48.348;7.878;2024-01-16T05:56:12;0.80;65.00
68011;DHT22;54794;48.348;7.878;2024-01-16T05:58:42;0.10;65.00
68011;DHT22;54794;48.348;7.878;2024-01-16T06:01:16;0.10;64.40
68011;DHT22;54794;48.348;7.878;2024-01-16T06:03:48;0.10;64.40
68011;DHT22;54794;48.348;7.878;2024-01-16T06:06:16;0.10;64.40
68011;DHT22;54794;48.348;7.878;2024-01-16T06:08:46;0.10;64.40
68011;DHT22;54794;48.348;7.878;2024-01-16T06:11:16;-0.10;64.30
68011;DHT22;54794;48.348;7.878;2024-01-16T06:13:44;0.00;64.50
68011;DHT22;54794;48.348;7.878;2024-01-16T06:16:11;-0.10;64.50
68011;DHT22;54794;48.348;7.878;2024-01-16T06:18:38;0.00;64.60
68011;DHT22;54794;48.348;7.878;2024-01-16T06:21:05;0.00;64.60
68011;DHT22;54794;48.348;7.878;2024-01-16T06:23:32;0.00;64.60
68011;DHT22;54794;48.348;7.878;2024-01-16T06:26:02;0.00;64.60
68011;DHT22;54794;48.348;7.878;2024-01-16T06:28:34;0.00;64.60
68011;DHT22;54794;48.348;7.878;2024-01-16T06:31:02;0.00;64.70
68011;DHT22;54794;48.348;7.878;2024-01-16T06:33:29;-0.10;64.60
68011;DHT22;54794;48.348;7.878;2024-01-16T06:35:56;0.00;64.60
68011;DHT22;54794;48.348;7.878;2024-01-16T06:38:23;0.00;64.60
68011;DHT22;54794;48.348;7.878;2024-01-16T06:40:50;0.00;64.60
68011;DHT22;54794;48.348;7.878;2024-01-16T06:43:18;0.00;64.60
68011;DHT22;54794;48.348;7.878;2024-01-16T06:45:45;0.00;64.60
68011;DHT22;54794;48.348;7.878;2024-01-16T06:48:11;0.00;64.60
68011;DHT22;54794;48.348;7.878;2024-01-16T06:50:38;0.00;64.60
68011;DHT22;54794;48.348;7.878;2024-01-16T06:53:05;0.00;64.50
68011;DHT22;54794;48.348;7.878;2024-01-16T06:55:33;-0.20;64.40
68011;DHT22;54794;48.348;7.878;2024-01-16T06:58:02;-0.20;64.30
68011;DHT22;54794;48.348;7.878;2024-01-16T07:00:29;-0.10;64.40
68011;DHT22;54794;48.348;7.878;2024-01-16T07:02:56;-0.10;64.30
68011;DHT22;54794;48.348;7.878;2024-01-16T07:05:23;-0.20;64.30
68011;DHT22;54794;48.348;7.878;2024-01-16T07:07:50;-0.30;64.30
68011;DHT22;54794;48.348;7.878;2024-01-16T07:10:17;-0.20;64.30
68011;DHT22;54794;48.348;7.878;2024-01-16T07:12:48;-0.20;64.30
68011;DHT22;54794;48.348;7.878;2024-01-16T07:15:16;-0.20;64.30
68011;DHT22;54794;48.348;7.878;2024-01-16T07:17:42;-0.20;64.30
68011;DHT22;54794;48.348;7.878;2024-01-16T07:20:10;-0.30;64.30
68011;DHT22;54794;48.348;7.878;2024-01-16T07:22:38;-0.30;64.40
68011;DHT22;54794;48.348;7.878;2024-01-16T07:25:08;-0.30;64.40
68011;DHT22;54794;48.348;7.878;2024-01-16T07:27:35;-0.30;64.50
68011;DHT22;54794;48.348;7.878;2024-01-16T07:30:04;-0.30;64.60
68011;DHT22;54794;48.348;7.878;2024-01-16T07:32:33;-0.30;64.60
68011;DHT22;54794;48.348;7.878;2024-01-16T07:35:02;-0.30;64.70
68011;DHT22;54794;48.348;7.878;2024-01-16T07:37:29;-0.30;64.60
68011;DHT22;54794;48.348;7.878;2024-01-16T07:39:56;-0.30;64.60
68011;DHT22;54794;48.348;7.878;2024-01-16T07:42:23;-0.30;64.60
68011;DHT22;54794;48.348;7.878;2024-01-16T07:44:50;-0.30;64.60
68011;DHT22;54794;48.348;7.878;2024-01-16T07:47:18;-0.30;64.70
68011;DHT22;54794;48.348;7.878;2024-01-16T07:49:44;-0.30;64.70
68011;DHT22;54794;48.348;7.878;2024-01-16T07:52:11;-0.30;64.70
68011;DHT22;54794;48.348;7.878;2024-01-16T07:54:38;-0.20;64.80
68011;DHT22;54794;48.348;7.878;2024-01-16T07:57:05;-0.30;64.80
68011;DHT22;54794;48.348;7.878;2024-01-16T07:59:33;-0.20;64.90
68011;DHT22;54794;48.348;7.878;2024-01-16T08:01:59;-0.20;64.90
68011;DHT22;54794;48.348;7.878;2024-01-16T08:04:26;-0.20;64.90
68011;DHT22;54794;48.348;7.878;2024-01-16T08:06:53;-0.10;64.90
68011;DHT22;54794;48.348;7.878;2024-01-16T08:09:20;-0.10;65.00
68011;DHT22;54794;48.348;7.878;2024-01-16T08:11:47;-0.10;65.00
68011;DHT22;54794;48.348;7.878;2024-01-16T08:14:14;-0.10;65.00
68011;DHT22;54794;48.348;7.878;2024-01-16T08:16:41;0.00;65.10
68011;DHT22;54794;48.348;7.878;2024-01-16T08:19:08;0.00;65.20
68011;DHT22;54794;48.348;7.878;2024-01-16T08:21:35;0.10;65.30
68011;DHT22;54794;48.348;7.878;2024-01-16T08:24:01;0.10;65.30
68011;DHT22;54794;48.348;7.878;2024-01-16T08:26:29;0.20;65.40
68011;DHT22;54794;48.348;7.878;2024-01-16T08:28:55;0.20;65.30
68011;DHT22;54794;48.348;7.878;2024-01-16T08:31:22;0.30;65.40
68011;DHT22;54794;48.348;7.878;2024-01-16T08:33:49;0.30;65.30
68011;DHT22;54794;48.348;7.878;2024-01-16T08:36:19;0.90;65.60
68011;DHT22;54794;48.348;7.878;2024-01-16T08:38:46;0.40;65.30
68011;DHT22;54794;48.348;7.878;2024-01-16T08:41:13;1.10;65.70
68011;DHT22;54794;48.348;7.878;2024-01-16T08:43:50;0.50;65.40
68011;DHT22;54794;48.348;7.878;2024-01-16T08:46:39;0.50;65.20
68011;DHT22;54794;48.348;7.878;2024-01-16T08:49:08;0.60;65.10
68011;DHT22;54794;48.348;7.878;2024-01-16T08:51:36;0.70;65.10
68011;DHT22;54794;48.348;7.878;2024-01-16T08:54:02;0.70;65.00
68011;DHT22;54794;48.348;7.878;2024-01-16T08:56:29;0.70;64.90
68011;DHT22;54794;48.348;7.878;2024-01-16T08:58:57;0.80;64.90
68011;DHT22;54794;48.348;7.878;2024-01-16T09:01:23;0.80;64.90
68011;DHT22;54794;48.348;7.878;2024-01-16T09:03:51;0.70;64.90
68011;DHT22;54794;48.348;7.878;2024-01-16T09:06:18;0.90;65.00
68011;DHT22;54794;48.348;7.878;2024-01-16T09:08:45;0.90;65.10
68011;DHT22;54794;48.348;7.878;2024-01-16T09:11:12;0.90;65.20
68011;DHT22;54794;48.348;7.878;2024-01-16T09:13:39;1.00;65.30
68011;DHT22;54794;48.348;7.878;2024-01-16T09:16:06;1.00;65.40
68011;DHT22;54794;48.348;7.878;2024-01-16T09:18:32;1.10;65.40
68011;DHT22;54794;48.348;7.878;2024-01-16T09:21:02;1.10;65.40
68011;DHT22;54794;48.348;7.878;2024-01-16T09:23:30;1.20;65.40
68011;DHT22;54794;48.348;7.878;2024-01-16T09:25:57;1.30;65.40
68011;DHT22;54794;48.348;7.878;2024-01-16T09:28:24;1.30;65.40
68011;DHT22;54794;48.348;7.878;2024-01-16T09:30:50;1.40;65.30
68011;DHT22;54794;48.348;7.878;2024-01-16T09:33:17;1.40;65.30
68011;DHT22;54794;48.348;7.878;2024-01-16T09:35:45;1.50;65.30
68011;DHT22;54794;48.348;7.878;2024-01-16T09:38:12;1.50;65.30
68011;DHT22;54794;48.348;7.878;2024-01-16T09:40:39;1.60;65.20
68011;DHT22;54794;48.348;7.878;2024-01-16T09:43:06;1.80;65.20
68011;DHT22;54794;48.348;7.878;2024-01-16T09:45:37;1.70;65.00
68011;DHT22;54794;48.348;7.878;2024-01-16T09:48:05;1.70;64.90
68011;DHT22;54794;48.348;7.878;2024-01-16T09:50:32;1.70;64.80
68011;DHT22;54794;48.348;7.878;2024-01-16T09:53:00;1.80;64.90
68011;DHT22;54794;48.348;7.878;2024-01-16T09:55:27;1.80;64.90
68011;DHT22;54794;48.348;7.878;2024-01-16T09:57:53;1.80;64.80
68011;DHT22;54794;48.348;7.878;2024-01-16T10:00:21;1.90;64.80
68011;DHT22;54794;48.348;7.878;2024-01-16T10:02:50;1.90;64.70
68011;DHT22;54794;48.348;7.878;2024-01-16T10:05:19;1.90;64.60
68011;DHT22;54794;48.348;7.878;2024-01-16T10:07:47;2.00;64.70
68011;DHT22;54794;48.348;7.878;2024-01-16T10:10:16;2.00;64.70
68011;DHT22;54794;48.348;7.878;2024-01-16T10:12:53;2.10;64.70
68011;DHT22;54794;48.348;7.878;2024-01-16T10:15:23;2.10;64.60
68011;DHT22;54794;48.348;7.878;2024-01-16T10:17:50;2.20;64.70
68011;DHT22;54794;48.348;7.878;2024-01-16T10:20:35;2.20;64.70
68011;DHT22;54794;48.348;7.878;2024-01-16T10:23:02;2.30;64.60
68011;DHT22;54794;48.348;7.878;2024-01-16T10:25:30;2.30;64.60
68011;DHT22;54794;48.348;7.878;2024-01-16T10:28:04;2.40;64.70
68011;DHT22;54794;48.348;7.878;2024-01-16T10:30:34;2.40;64.60
68011;DHT22;54794;48.348;7.878;2024-01-16T10:33:13;2.40;64.60
68011;DHT22;54794;48.348;7.878;2024-01-16T10:35:41;2.50;64.60
68011;DHT22;54794;48.348;7.878;2024-01-16T10:38:08;2.50;64.50
68011;DHT22;54794;48.348;7.878;2024-01-16T10:40:35;2.50;64.50
68011;DHT22;54794;48.348;7.878;2024-01-16T10:43:03;2.60;64.50
68011;DHT22;54794;48.348;7.878;2024-01-16T10:45:32;2.60;64.40
68011;DHT22;54794;48.348;7.878;2024-01-16T10:48:07;2.70;64.30
68011;DHT22;54794;48.348;7.878;2024-01-16T10:50:36;2.70;64.10
68011;DHT22;54794;48.348;7.878;2024-01-16T10:53:05;2.80;64.30
68011;DHT22;54794;48.348;7.878;2024-01-16T10:55:43;2.80;64.20
68011;DHT22;54794;48.348;7.878;2024-01-16T10:58:22;2.80;64.00
68011;DHT22;54794;48.348;7.878;2024-01-16T11:00:52;2.90;64.10
68011;DHT22;54794;48.348;7.878;2024-01-16T11:06:26;2.90;63.70
68011;DHT22;54794;48.348;7.878;2024-01-16T11:08:57;3.00;63.80
68011;DHT22;54794;48.348;7.878;2024-01-16T11:11:27;3.00;63.70
68011;DHT22;54794;48.348;7.878;2024-01-16T11:13:58;3.00;63.50
68011;DHT22;54794;48.348;7.878;2024-01-16T11:16:33;3.20;63.60
68011;DHT22;54794;48.348;7.878;2024-01-16T11:19:08;3.00;63.60
68011;DHT22;54794;48.348;7.878;2024-01-16T11:21:56;3.20;63.70
68011;DHT22;54794;48.348;7.878;2024-01-16T11:24:27;3.00;63.50
68011;DHT22;54794;48.348;7.878;2024-01-16T11:26:54;3.00;63.70
68011;DHT22;54794;48.348;7.878;2024-01-16T11:31:55;3.10;63.30
68011;DHT22;54794;48.348;7.878;2024-01-16T11:37:15;3.10;63.50
68011;DHT22;54794;48.348;7.878;2024-01-16T11:42:54;3.30;63.20
68011;DHT22;54794;48.348;7.878;2024-01-16T11:50:39;3.50;63.30
68011;DHT22;54794;48.348;7.878;2024-01-16T11:53:07;3.50;63.40
68011;DHT22;54794;48.348;7.878;2024-01-16T11:55:35;3.50;63.50
68011;DHT22;54794;48.348;7.878;2024-01-16T11:58:45;3.60;63.40
68011;DHT22;54794;48.348;7.878;2024-01-16T12:01:19;3.70;63.30
68011;DHT22;54794;48.348;7.878;2024-01-16T12:04:05;3.70;63.60
68011;DHT22;54794;48.348;7.878;2024-01-16T12:06:36;3.80;63.10
68011;DHT22;54794;48.348;7.878;2024-01-16T12:11:42;3.80;63.10
68011;DHT22;54794;48.348;7.878;2024-01-16T12:14:12;3.80;63.30
68011;DHT22;54794;48.348;7.878;2024-01-16T12:16:39;3.90;63.50
68011;DHT22;54794;48.348;7.878;2024-01-16T12:19:10;4.10;63.00
68011;DHT22;54794;48.348;7.878;2024-01-16T12:21:39;4.00;63.10
68011;DHT22;54794;48.348;7.878;2024-01-16T12:24:08;4.10;63.10
68011;DHT22;54794;48.348;7.878;2024-01-16T12:26:41;4.20;63.10
68011;DHT22;54794;48.348;7.878;2024-01-16T12:29:09;4.20;63.10
68011;DHT22;54794;48.348;7.878;2024-01-16T12:31:36;4.30;63.30
68011;DHT22;54794;48.348;7.878;2024-01-16T12:34:12;4.40;63.10
68011;DHT22;54794;48.348;7.878;2024-01-16T12:36:43;4.90;63.40
68011;DHT22;54794;48.348;7.878;2024-01-16T12:39:19;5.10;63.50
68011;DHT22;54794;48.348;7.878;2024-01-16T12:41:48;4.50;63.20
68011;DHT22;54794;48.348;7.878;2024-01-16T12:44:15;4.50;63.00
68011;DHT22;54794;48.348;7.878;2024-01-16T12:46:54;4.60;62.90
68011;DHT22;54794;48.348;7.878;2024-01-16T12:50:05;4.70;62.80
68011;DHT22;54794;48.348;7.878;2024-01-16T12:53:06;4.80;63.10
68011;DHT22;54794;48.348;7.878;2024-01-16T12:55:38;4.90;62.50
68011;DHT22;54794;48.348;7.878;2024-01-16T12:58:22;4.80;63.10
68011;DHT22;54794;48.348;7.878;2024-01-16T13:00:55;5.50;63.20
68011;DHT22;54794;48.348;7.878;2024-01-16T13:03:25;4.80;62.80
68011;DHT22;54794;48.348;7.878;2024-01-16T13:06:02;5.20;62.60
68011;DHT22;54794;48.348;7.878;2024-01-16T13:08:31;5.10;62.50
68011;DHT22;54794;48.348;7.878;2024-01-16T13:11:03;6.10;63.00
68011;DHT22;54794;48.348;7.878;2024-01-16T13:13:30;5.30;62.30
68011;DHT22;54794;48.348;7.878;2024-01-16T13:16:00;5.30;62.50
68011;DHT22;54794;48.348;7.878;2024-01-16T13:18:37;5.50;62.60
68011;DHT22;54794;48.348;7.878;2024-01-16T13:21:04;5.90;62.60
68011;DHT22;54794;48.348;7.878;2024-01-16T13:23:33;5.40;62.00
68011;DHT22;54794;48.348;7.878;2024-01-16T13:26:01;5.50;62.30
68011;DHT22;54794;48.348;7.878;2024-01-16T13:28:31;5.50;62.50
68011;DHT22;54794;48.348;7.878;2024-01-16T13:31:00;5.50;62.00
68011;DHT22;54794;48.348;7.878;2024-01-16T13:33:36;5.80;61.70
68011;DHT22;54794;48.348;7.878;2024-01-16T13:36:17;5.80;61.80
68011;DHT22;54794;48.348;7.878;2024-01-16T13:42:50;6.40;62.20
68011;DHT22;54794;48.348;7.878;2024-01-16T13:46:02;5.70;61.60
68011;DHT22;54794;48.348;7.878;2024-01-16T13:49:16;5.70;61.80
68011;DHT22;54794;48.348;7.878;2024-01-16T13:51:53;5.80;61.10
68011;DHT22;54794;48.348;7.878;2024-01-16T13:54:38;5.80;61.30
68011;DHT22;54794;48.348;7.878;2024-01-16T13:57:15;5.80;61.50
68011;DHT22;54794;48.348;7.878;2024-01-16T13:59:55;5.80;61.40
68011;DHT22;54794;48.348;7.878;2024-01-16T14:02:34;5.70;61.20
68011;DHT22;54794;48.348;7.878;2024-01-16T14:05:16;5.80;61.40
68011;DHT22;54794;48.348;7.878;2024-01-16T14:07:46;6.00;61.60
68011;DHT22;54794;48.348;7.878;2024-01-16T14:10:23;6.40;61.20
68011;DHT22;54794;48.348;7.878;2024-01-16T14:14:38;6.10;60.90
68011;DHT22;54794;48.348;7.878;2024-01-16T14:17:47;6.60;61.00
68011;DHT22;54794;48.348;7.878;2024-01-16T14:21:09;6.20;60.80
68011;DHT22;54794;48.348;7.878;2024-01-16T14:24:06;6.20;61.00
68011;DHT22;54794;48.348;7.878;2024-01-16T14:31:04;6.30;60.20
68011;DHT22;54794;48.348;7.878;2024-01-16T14:34:15;6.20;60.50
68011;DHT22;54794;48.348;7.878;2024-01-16T14:36:57;6.20;60.60
68011;DHT22;54794;48.348;7.878;2024-01-16T14:39:56;6.10;60.60
68011;DHT22;54794;48.348;7.878;2024-01-16T14:42:34;6.50;60.00
68011;DHT22;54794;48.348;7.878;2024-01-16T14:45:17;6.30;60.60
68011;DHT22;54794;48.348;7.878;2024-01-16T14:48:06;6.20;60.00
68011;DHT22;54794;48.348;7.878;2024-01-16T14:50:48;6.70;60.20
68011;DHT22;54794;48.348;7.878;2024-01-16T14:56:48;6.30;60.10
68011;DHT22;54794;48.348;7.878;2024-01-16T15:07:16;6.20;59.50
68011;DHT22;54794;48.348;7.878;2024-01-16T15:09:49;5.90;59.80
68011;DHT22;54794;48.348;7.878;2024-01-16T15:12:26;6.30;59.70
68011;DHT22;54794;48.348;7.878;2024-01-16T15:14:58;6.00;59.40
68011;DHT22;54794;48.348;7.878;2024-01-16T15:17:28;5.90;59.50
68011;DHT22;54794;48.348;7.878;2024-01-16T15:19:58;5.80;59.50
68011;DHT22;54794;48.348;7.878;2024-01-16T15:22:25;5.70;59.50
68011;DHT22;54794;48.348;7.878;2024-01-16T15:24:52;5.80;59.60
68011;DHT22;54794;48.348;7.878;2024-01-16T15:27:24;5.60;59.40
68011;DHT22;54794;48.348;7.878;2024-01-16T15:29:56;5.50;59.20
68011;DHT22;54794;48.348;7.878;2024-01-16T15:32:27;5.60;59.30
68011;DHT22;54794;48.348;7.878;2024-01-16T15:34:57;5.30;59.10
68011;DHT22;54794;48.348;7.878;2024-01-16T15:37:24;5.40;59.40
68011;DHT22;54794;48.348;7.878;2024-01-16T15:39:51;6.40;60.00
68011;DHT22;54794;48.348;7.878;2024-01-16T15:42:18;5.20;59.40
68011;DHT22;54794;48.348;7.878;2024-01-16T15:44:47;5.20;59.50
68011;DHT22;54794;48.348;7.878;2024-01-16T15:47:15;5.20;59.50
68011;DHT22;54794;48.348;7.878;2024-01-16T15:49:42;5.00;59.40
68011;DHT22;54794;48.348;7.878;2024-01-16T15:52:12;5.00;59.40
68011;DHT22;54794;48.348;7.878;2024-01-16T15:54:41;5.30;59.40
68011;DHT22;54794;48.348;7.878;2024-01-16T15:57:08;5.00;59.40
68011;DHT22;54794;48.348;7.878;2024-01-16T15:59:35;4.90;59.40
68011;DHT22;54794;48.348;7.878;2024-01-16T16:02:02;5.00;59.50
68011;DHT22;54794;48.348;7.878;2024-01-16T16:04:30;4.90;59.50
68011;DHT22;54794;48.348;7.878;2024-01-16T16:06:57;4.70;59.30
68011;DHT22;54794;48.348;7.878;2024-01-16T16:09:24;4.70;59.40
68011;DHT22;54794;48.348;7.878;2024-01-16T16:11:52;4.90;59.50
68011;DHT22;54794;48.348;7.878;2024-01-16T16:14:19;4.90;59.60
68011;DHT22;54794;48.348;7.878;2024-01-16T16:16:50;5.00;59.70
68011;DHT22;54794;48.348;7.878;2024-01-16T16:19:17;4.50;59.30
68011;DHT22;54794;48.348;7.878;2024-01-16T16:21:44;4.40;59.50
68011;DHT22;54794;48.348;7.878;2024-01-16T16:24:11;4.40;59.60
68011;DHT22;54794;48.348;7.878;2024-01-16T16:26:41;4.30;59.60
68011;DHT22;54794;48.348;7.878;2024-01-16T16:29:11;4.30;59.70
68011;DHT22;54794;48.348;7.878;2024-01-16T16:32:16;4.20;59.70
68011;DHT22;54794;48.348;7.878;2024-01-16T16:34:45;4.10;59.60
68011;DHT22;54794;48.348;7.878;2024-01-16T16:37:12;4.00;59.80
68011;DHT22;54794;48.348;7.878;2024-01-16T16:39:41;3.80;59.80
68011;DHT22;54794;48.348;7.878;2024-01-16T16:42:11;4.30;60.20
68011;DHT22;54794;48.348;7.878;2024-01-16T16:44:38;3.80;59.90
68011;DHT22;54794;48.348;7.878;2024-01-16T16:47:05;3.70;59.90
68011;DHT22;54794;48.348;7.878;2024-01-16T16:49:34;3.70;60.00
68011;DHT22;54794;48.348;7.878;2024-01-16T16:52:01;3.60;60.00
68011;DHT22;54794;48.348;7.878;2024-01-16T16:54:29;3.60;60.00
68011;DHT22;54794;48.348;7.878;2024-01-16T16:56:57;3.50;60.10
68011;DHT22;54794;48.348;7.878;2024-01-16T16:59:24;3.50;60.20
68011;DHT22;54794;48.348;7.878;2024-01-16T17:01:51;3.40;60.20
68011;DHT22;54794;48.348;7.878;2024-01-16T17:04:19;3.40;60.30
68011;DHT22;54794;48.348;7.878;2024-01-16T17:07:03;3.40;60.30
68011;DHT22;54794;48.348;7.878;2024-01-16T17:09:30;3.20;60.40
68011;DHT22;54794;48.348;7.878;2024-01-16T17:11:57;3.30;60.30
68011;DHT22;54794;48.348;7.878;2024-01-16T17:20:41;3.10;60.40
68011;DHT22;54794;48.348;7.878;2024-01-16T17:23:16;3.70;60.70
68011;DHT22;54794;48.348;7.878;2024-01-16T17:25:53;2.80;60.50
68011;DHT22;54794;48.348;7.878;2024-01-16T17:28:23;2.90;60.70
68011;DHT22;54794;48.348;7.878;2024-01-16T17:31:02;2.80;60.50
68011;DHT22;54794;48.348;7.878;2024-01-16T17:33:30;2.70;60.60